Centerdale, Iowa
Current Conditions -  °F | °C
As of 7:52 PM on Saturday 20 Dec 2014 (Local Time) from KIOW Reporting Station
Haze Haze  
Wind Chill: 28°   Ceiling: 300
Heat Index: 33°   Visibility: 2.5mi
Dew Point: 32°   Wind: 6mph
Humidity: 96%   Direction: 130°SE
Pressure: 30.2"   Gusts: NA
Location:  41.5542°N, 91.2913°W
Report Text: KIOW 210152Z AUTO 13005KT 2 1/2SM BR OVC003 01/00 A3020 RMK AO2 SLP234 T00060000
Loading
Personal Weather Stations






























Interactive Weather Map New forecast layout! Learn more

10-Day Weather Forecast

Advertisements
Track Severe Weather on mobile